createdAt,value
2023-10-02T00:01:42.721Z,100344.09
2023-10-02T00:03:48.938Z,100343.16
2023-10-02T00:05:53.020Z,100340.88
2023-10-02T00:07:54.491Z,100348.03
2023-10-02T00:09:55.888Z,100345.25
2023-10-02T00:11:57.918Z,100346.41
2023-10-02T00:14:26.972Z,100352.69
2023-10-02T00:16:32.396Z,100341.44
2023-10-02T00:18:35.205Z,100343.66
2023-10-02T00:20:36.617Z,100346.22
2023-10-02T00:22:38.065Z,100344.38
2023-10-02T00:24:41.415Z,100348.66
2023-10-02T00:26:43.665Z,100348.31
2023-10-02T00:28:47.121Z,100349.84
2023-10-02T00:30:50.074Z,100352.38
2023-10-02T00:32:52.614Z,100347.28
2023-10-02T00:34:54.752Z,100355.38
2023-10-02T00:36:56.257Z,100344.97
2023-10-02T00:39:19.570Z,100353.19
2023-10-02T00:41:21.011Z,100349.25
2023-10-02T00:43:42.971Z,100351.00
2023-10-02T00:45:44.588Z,100344.53
2023-10-02T00:47:47.132Z,100351.47
2023-10-02T00:50:07.964Z,100350.41
2023-10-02T00:52:10.245Z,100349.50
2023-10-02T00:54:28.579Z,100347.28
2023-10-02T00:56:30.406Z,100351.22
2023-10-02T00:58:32.788Z,100345.19
2023-10-02T01:00:43.361Z,100344.06
2023-10-02T01:02:52.951Z,100340.56
2023-10-02T01:04:57.902Z,100340.91
2023-10-02T01:07:05.252Z,100347.53
2023-10-02T01:09:06.706Z,100342.19
2023-10-02T01:11:08.220Z,100333.88
2023-10-02T01:13:10.075Z,100340.72
2023-10-02T01:15:16.131Z,100341.59
2023-10-02T01:17:18.696Z,100341.16
2023-10-02T01:19:25.553Z,100349.59
2023-10-02T01:21:29.419Z,100350.31
2023-10-02T01:23:34.618Z,100341.59
2023-10-02T01:25:39.377Z,100343.50
2023-10-02T01:27:42.322Z,100341.75
2023-10-02T01:29:43.798Z,100349.59
2023-10-02T01:31:53.062Z,100342.56
2023-10-02T01:33:55.403Z,100337.22
2023-10-02T01:36:00.818Z,100335.16
2023-10-02T01:38:02.888Z,100335.25
2023-10-02T01:40:23.347Z,100337.47
2023-10-02T01:42:24.791Z,100332.03
2023-10-02T01:44:26.321Z,100339.81
2023-10-02T01:46:29.439Z,100341.31
2023-10-02T01:48:45.399Z,100344.78
2023-10-02T01:50:46.997Z,100325.00
2023-10-02T01:52:52.338Z,100326.38
2023-10-02T01:54:57.631Z,100331.69
2023-10-02T01:57:05.839Z,100327.66
2023-10-02T01:59:15.886Z,100326.84
2023-10-02T02:01:18.254Z,100330.19
2023-10-02T02:03:19.981Z,100334.00
2023-10-02T02:05:21.586Z,100323.03
2023-10-02T02:07:23.031Z,100324.53
2023-10-02T02:09:32.895Z,100326.38
2023-10-02T02:11:36.054Z,100327.19
2023-10-02T02:13:45.238Z,100322.09
2023-10-02T02:16:08.853Z,100323.72
2023-10-02T02:18:10.578Z,100323.50
2023-10-02T02:20:12.874Z,100323.38
2023-10-02T02:22:32.788Z,100319.34
2023-10-02T02:24:35.914Z,100317.97
2023-10-02T02:26:40.508Z,100321.66
2023-10-02T02:28:45.078Z,100316.34
2023-10-02T02:30:48.602Z,100319.00
2023-10-02T02:32:56.351Z,100318.53
2023-10-02T02:35:02.323Z,100318.66
2023-10-02T02:37:07.695Z,100319.91
2023-10-02T02:39:18.022Z,100317.03
2023-10-02T02:41:19.626Z,100314.38
2023-10-02T02:43:22.741Z,100317.25
2023-10-02T02:45:32.882Z,100303.72
2023-10-02T02:47:52.326Z,100308.22
2023-10-02T02:49:59.709Z,100310.06
2023-10-02T02:52:01.369Z,100306.97
2023-10-02T02:54:06.339Z,100306.38
2023-10-02T02:56:24.651Z,100303.16
2023-10-02T02:58:27.234Z,100305.81
2023-10-02T03:00:32.925Z,100304.19
2023-10-02T03:02:34.543Z,100306.03
2023-10-02T03:04:38.490Z,100300.59
2023-10-02T03:06:43.305Z,100309.25
2023-10-02T03:08:45.956Z,100302.34
2023-10-02T03:10:48.026Z,100294.81
2023-10-02T03:12:49.969Z,100303.56
2023-10-02T03:14:55.422Z,100302.78
2023-10-02T03:17:16.894Z,100300.34
2023-10-02T03:19:20.408Z,100303.56
2023-10-02T03:21:25.645Z,100291.88
2023-10-02T03:23:31.665Z,100291.56
2023-10-02T03:25:50.415Z,100293.41
2023-10-02T03:27:51.886Z,100289.47
2023-10-02T03:29:53.795Z,100294.56
2023-10-02T03:31:55.284Z,100289.69
2023-10-02T03:33:56.797Z,100292.38
2023-10-02T03:35:59.672Z,100296.41
2023-10-02T03:38:03.206Z,100294.56
2023-10-02T03:40:15.153Z,100295.03
2023-10-02T03:42:20.370Z,100295.84
2023-10-02T03:44:23.886Z,100288.78
2023-10-02T03:46:36.755Z,100295.03
2023-10-02T03:48:38.214Z,100290.97
2023-10-02T03:50:39.640Z,100288.66
2023-10-02T03:52:46.691Z,100284.38
2023-10-02T03:54:50.216Z,100282.06
2023-10-02T03:56:52.780Z,100285.53
2023-10-02T03:58:55.099Z,100285.53
2023-10-02T04:00:56.568Z,100279.06
2023-10-02T04:03:00.347Z,100286.47
2023-10-02T04:05:02.036Z,100281.25
2023-10-02T04:07:03.560Z,100274.00
2023-10-02T04:09:15.943Z,100273.75
2023-10-02T04:11:19.719Z,100274.22
2023-10-02T04:13:26.080Z,100267.72
2023-10-02T04:15:27.611Z,100264.50
2023-10-02T04:17:35.755Z,100262.06
2023-10-02T04:19:42.194Z,100262.31
2023-10-02T04:21:46.652Z,100262.06
2023-10-02T04:23:48.162Z,100261.25
2023-10-02T04:25:53.022Z,100260.78
2023-10-02T04:27:57.076Z,100260.44
2023-10-02T04:30:20.768Z,100266.56
2023-10-02T04:32:25.666Z,100260.44
2023-10-02T04:34:30.988Z,100256.28
2023-10-02T04:36:36.014Z,100261.84
2023-10-02T04:38:50.808Z,100254.69
2023-10-02T04:40:52.488Z,100253.41
2023-10-02T04:43:10.477Z,100257.00
2023-10-02T04:45:21.697Z,100259.75
2023-10-02T04:47:24.567Z,100266.44
2023-10-02T04:49:30.204Z,100258.13
2023-10-02T04:51:31.818Z,100253.88
2023-10-02T04:53:36.028Z,100259.19
2023-10-02T04:55:43.933Z,100254.56
2023-10-02T04:57:46.060Z,100256.41
2023-10-02T04:59:56.142Z,100252.25
2023-10-02T05:02:17.585Z,100245.78
2023-10-02T05:04:20.018Z,100259.88
2023-10-02T05:06:41.548Z,100255.94
2023-10-02T05:09:03.410Z,100244.84
2023-10-02T05:11:24.389Z,100249.47
2023-10-02T05:13:44.685Z,100254.00
2023-10-02T05:16:06.081Z,100248.44
2023-10-02T05:18:10.789Z,100254.56
2023-10-02T05:20:16.326Z,100255.59
2023-10-02T05:22:17.806Z,100251.56
2023-10-02T05:24:20.210Z,100259.88
2023-10-02T05:26:40.122Z,100253.41
2023-10-02T05:28:44.233Z,100255.25
2023-10-02T05:30:46.031Z,100261.97
2023-10-02T05:32:47.707Z,100263.81
2023-10-02T05:35:15.318Z,100266.81
2023-10-02T05:37:24.230Z,100267.03
2023-10-02T05:39:29.357Z,100263.09
2023-10-02T05:41:42.191Z,100264.63
2023-10-02T05:43:56.790Z,100274.47
2023-10-02T05:45:58.871Z,100270.72
2023-10-02T05:48:00.573Z,100269.94
2023-10-02T05:50:02.187Z,100271.69
2023-10-02T05:52:12.507Z,100273.75
2023-10-02T05:54:14.344Z,100274.91
2023-10-02T05:56:15.803Z,100276.19
2023-10-02T05:58:32.400Z,100283.34
2023-10-02T06:00:36.958Z,100281.38
2023-10-02T06:02:59.198Z,100279.31
2023-10-02T06:05:09.565Z,100292.38
2023-10-02T06:07:13.191Z,100293.16
2023-10-02T06:09:15.374Z,100296.53
2023-10-02T06:11:26.694Z,100298.16
2023-10-02T06:13:38.237Z,100294.34
2023-10-02T06:15:49.001Z,100293.06
2023-10-02T06:17:50.567Z,100301.72
2023-10-02T06:19:53.150Z,100299.53
2023-10-02T06:21:57.542Z,100300.03
2023-10-02T06:24:00.112Z,100304.06
2023-10-02T06:26:02.837Z,100306.25
2023-10-02T06:28:25.909Z,100306.94
2023-10-02T06:30:30.437Z,100309.94
2023-10-02T06:32:33.176Z,100310.88
2023-10-02T06:34:38.858Z,100312.84
2023-10-02T06:36:49.177Z,100303.09
2023-10-02T06:38:55.938Z,100302.88
2023-10-02T06:40:58.324Z,100299.00
2023-10-02T06:43:01.928Z,100297.28
2023-10-02T06:45:03.653Z,100310.22
2023-10-02T06:47:12.569Z,100305.31
2023-10-02T06:49:16.314Z,100302.16
2023-10-02T06:51:17.965Z,100302.63
2023-10-02T06:53:24.185Z,100302.81
2023-10-02T06:55:27.250Z,100306.88
2023-10-02T06:57:29.666Z,100304.53
2023-10-02T06:59:33.924Z,100303.34
2023-10-02T07:01:35.961Z,100305.53
2023-10-02T07:03:40.553Z,100307.22
2023-10-02T07:05:44.053Z,100307.34
2023-10-02T07:08:00.250Z,100301.03
2023-10-02T07:10:12.645Z,100303.50
2023-10-02T07:12:17.009Z,100303.00
2023-10-02T07:14:19.884Z,100299.84
2023-10-02T07:16:23.609Z,100305.25
2023-10-02T07:18:38.896Z,100303.72
2023-10-02T07:20:44.291Z,100310.50
2023-10-02T07:22:46.670Z,100294.59
2023-10-02T07:24:50.474Z,100301.06
2023-10-02T07:26:52.931Z,100300.59
2023-10-02T07:28:54.836Z,100304.38
2023-10-02T07:30:58.043Z,100308.25
2023-10-02T07:33:05.037Z,100304.31
2023-10-02T07:35:25.693Z,100298.22
2023-10-02T07:37:27.455Z,100298.84
2023-10-02T07:39:38.920Z,100303.22
2023-10-02T07:41:40.756Z,100298.19
2023-10-02T07:43:43.212Z,100295.09
2023-10-02T07:45:46.274Z,100297.09
2023-10-02T07:48:09.258Z,100291.59
2023-10-02T07:50:24.612Z,100289.25
2023-10-02T07:52:30.978Z,100292.88
2023-10-02T07:54:45.521Z,100293.66
2023-10-02T07:56:48.884Z,100294.06
2023-10-02T07:58:56.394Z,100292.75
2023-10-02T08:01:07.437Z,100282.75
2023-10-02T08:03:28.920Z,100280.41
2023-10-02T08:05:37.034Z,100280.22
2023-10-02T08:07:40.818Z,100282.44
2023-10-02T08:09:48.982Z,100283.50
2023-10-02T08:11:51.559Z,100283.06
2023-10-02T08:13:54.202Z,100278.59
2023-10-02T08:15:56.774Z,100289.41
2023-10-02T08:17:58.325Z,100285.66
2023-10-02T08:20:00.804Z,100285.22
2023-10-02T08:22:06.382Z,100281.22
2023-10-02T08:24:12.134Z,100284.22
2023-10-02T08:26:26.595Z,100285.38
2023-10-02T08:28:31.800Z,100288.44
2023-10-02T08:30:33.535Z,100287.09
2023-10-02T08:32:36.433Z,100289.56
2023-10-02T08:34:38.184Z,100285.34
2023-10-02T08:36:41.396Z,100277.38
2023-10-02T08:38:42.827Z,100283.31
2023-10-02T08:40:44.279Z,100282.81
2023-10-02T08:42:48.058Z,100283.94
2023-10-02T08:44:50.914Z,100281.81
2023-10-02T08:46:56.499Z,100277.03
2023-10-02T08:48:58.128Z,100281.34
2023-10-02T08:50:59.719Z,100275.78
2023-10-02T08:53:05.661Z,100271.28
2023-10-02T08:55:37.211Z,100275.88
2023-10-02T08:58:02.444Z,100274.31
2023-10-02T09:00:15.000Z,100278.59
2023-10-02T09:02:18.218Z,100277.81
2023-10-02T09:04:23.181Z,100279.22
2023-10-02T09:06:29.620Z,100271.72
2023-10-02T09:09:01.200Z,100276.00
2023-10-02T09:11:02.852Z,100277.38
2023-10-02T09:13:15.600Z,100266.66
2023-10-02T09:15:33.402Z,100272.34
2023-10-02T09:17:45.433Z,100272.88
2023-10-02T09:19:59.136Z,100270.47
2023-10-02T09:22:07.987Z,100269.41
2023-10-02T09:24:28.748Z,100262.97
2023-10-02T09:26:34.136Z,100267.78
2023-10-02T09:28:43.014Z,100258.66
2023-10-02T09:30:44.561Z,100262.94
2023-10-02T09:32:54.168Z,100250.31
2023-10-02T09:35:15.596Z,100251.38
2023-10-02T09:38:05.799Z,100253.25
2023-10-02T09:39:50.590Z,100253.22
2023-10-02T09:41:56.548Z,100239.78
2023-10-02T09:44:12.957Z,100234.94
2023-10-02T09:46:17.484Z,100238.41
2023-10-02T09:48:54.433Z,100235.13
2023-10-02T09:50:57.446Z,100231.31
2023-10-02T09:53:09.523Z,100228.06
2023-10-02T09:55:21.319Z,100229.91
2023-10-02T09:57:26.910Z,100230.91
2023-10-02T09:59:28.715Z,100234.66
2023-10-02T10:01:30.270Z,100235.41
2023-10-02T10:03:32.894Z,100234.53
2023-10-02T10:05:47.063Z,100229.38
2023-10-02T10:08:00.856Z,100231.66
2023-10-02T10:10:47.019Z,100230.84
2023-10-02T10:12:56.734Z,100234.84
2023-10-02T10:15:35.514Z,100225.88
2023-10-02T10:17:52.930Z,100225.00
2023-10-02T10:20:10.610Z,100223.00
2023-10-02T10:22:36.115Z,100218.97
2023-10-02T10:24:58.392Z,100213.78
2023-10-02T10:26:59.951Z,100214.00
2023-10-02T10:29:39.494Z,100216.41
2023-10-02T10:31:41.088Z,100203.41
2023-10-02T10:33:42.678Z,100205.47
2023-10-02T10:35:52.865Z,100199.16
2023-10-02T10:37:57.588Z,100194.00
2023-10-02T10:40:02.117Z,100189.94
2023-10-02T10:42:04.241Z,100188.94
2023-10-02T10:44:13.544Z,100185.31
2023-10-02T10:46:18.140Z,100177.38
2023-10-02T10:48:22.937Z,100182.66
2023-10-02T10:50:31.231Z,100183.53
2023-10-02T10:52:36.402Z,100188.78
2023-10-02T10:54:55.367Z,100189.53
2023-10-02T10:57:20.046Z,100183.00
2023-10-02T10:59:26.334Z,100189.66
2023-10-02T11:01:28.793Z,100197.59
2023-10-02T11:03:31.907Z,100196.63
2023-10-02T11:05:34.673Z,100195.19
2023-10-02T11:07:41.338Z,100198.59
2023-10-02T11:09:42.782Z,100193.13
2023-10-02T11:11:54.375Z,100203.84
2023-10-02T11:13:56.434Z,100200.69
2023-10-02T11:16:08.980Z,100199.00
2023-10-02T11:18:22.734Z,100196.53
2023-10-02T11:20:32.094Z,100190.03
2023-10-02T11:22:50.140Z,100187.34
2023-10-02T11:24:54.571Z,100193.38
2023-10-02T11:27:11.868Z,100196.28
2023-10-02T11:29:21.776Z,100196.19
2023-10-02T11:31:31.259Z,100189.03
2023-10-02T11:33:34.293Z,100183.41
2023-10-02T11:35:39.734Z,100180.00
2023-10-02T11:37:49.588Z,100176.41
2023-10-02T11:39:51.834Z,100169.78
2023-10-02T11:41:53.709Z,100170.34
2023-10-02T11:43:57.532Z,100159.25
2023-10-02T11:45:58.994Z,100155.22
2023-10-02T11:48:00.722Z,100156.78
2023-10-02T11:50:02.265Z,100154.28
2023-10-02T11:52:04.991Z,100154.78
2023-10-02T11:54:12.849Z,100153.72
2023-10-02T11:56:14.331Z,100154.41
2023-10-02T11:58:15.788Z,100153.53
2023-10-02T12:00:17.427Z,100151.69
2023-10-02T12:02:18.987Z,100152.34
2023-10-02T12:04:20.515Z,100157.13
2023-10-02T12:06:22.882Z,100155.88
2023-10-02T12:08:24.388Z,100151.19
2023-10-02T12:10:28.313Z,100149.69
2023-10-02T12:12:29.771Z,100151.13
2023-10-02T12:14:32.050Z,100147.31
2023-10-02T12:16:33.736Z,100153.75
2023-10-02T12:18:36.220Z,100150.06
2023-10-02T12:20:40.775Z,100148.34
2023-10-02T12:22:45.458Z,100145.78
2023-10-02T12:24:47.750Z,100144.69
2023-10-02T12:26:51.032Z,100148.84
2023-10-02T12:28:52.596Z,100146.91
2023-10-02T12:30:55.019Z,100141.66
2023-10-02T12:32:57.009Z,100145.50
2023-10-02T12:34:58.655Z,100138.31
2023-10-02T12:37:01.652Z,100136.41
2023-10-02T12:39:05.630Z,100128.91
2023-10-02T12:41:19.398Z,100129.84
2023-10-02T12:43:20.812Z,100123.47
2023-10-02T12:45:22.254Z,100120.94
2023-10-02T12:47:23.889Z,100112.00
2023-10-02T12:49:25.484Z,100123.16
2023-10-02T12:51:28.034Z,100115.66
2023-10-02T12:53:29.535Z,100110.22
2023-10-02T12:55:35.511Z,100106.41
2023-10-02T12:57:39.998Z,100110.56
2023-10-02T12:59:45.048Z,100108.63
2023-10-02T13:01:46.588Z,100114.84
2023-10-02T13:03:48.134Z,100104.97
2023-10-02T13:05:50.865Z,100104.00
2023-10-02T13:07:56.818Z,100097.91
2023-10-02T13:09:58.330Z,100086.75
2023-10-02T13:12:00.438Z,100089.91
2023-10-02T13:14:02.101Z,100092.66
2023-10-02T13:16:03.627Z,100091.88
2023-10-02T13:18:05.650Z,100088.38
2023-10-02T13:20:09.371Z,100090.59
2023-10-02T13:22:11.591Z,100087.53
2023-10-02T13:24:16.680Z,100083.25
2023-10-02T13:26:18.764Z,100078.16
2023-10-02T13:28:20.517Z,100073.03
2023-10-02T13:30:26.972Z,100084.06
2023-10-02T13:32:28.682Z,100078.63
2023-10-02T13:34:32.445Z,100074.78
2023-10-02T13:36:34.809Z,100072.53
2023-10-02T13:38:37.159Z,100071.75
2023-10-02T13:40:39.328Z,100070.78
2023-10-02T13:42:40.766Z,100077.19
2023-10-02T13:44:42.254Z,100068.09
2023-10-02T13:46:44.171Z,100065.66
2023-10-02T13:48:46.016Z,100060.41
2023-10-02T13:51:02.475Z,100055.41
2023-10-02T13:53:10.988Z,100055.09
2023-10-02T13:55:23.690Z,100050.78
2023-10-02T13:57:25.355Z,100044.38
2023-10-02T13:59:27.333Z,100050.31
2023-10-02T14:01:31.843Z,100045.31
2023-10-02T14:03:34.109Z,100045.00
2023-10-02T14:05:36.906Z,100039.22
2023-10-02T14:07:38.481Z,100045.16
2023-10-02T14:09:39.879Z,100040.38
2023-10-02T14:11:41.687Z,100039.06
2023-10-02T14:13:43.505Z,100034.94
2023-10-02T14:15:44.926Z,100029.69
2023-10-02T14:17:47.394Z,100033.81
2023-10-02T14:19:56.267Z,100028.69
2023-10-02T14:21:58.732Z,100034.19
2023-10-02T14:24:00.952Z,100031.50
2023-10-02T14:26:03.532Z,100032.63
2023-10-02T14:28:06.136Z,100029.66
2023-10-02T14:30:13.382Z,100028.56
2023-10-02T14:32:14.941Z,100026.19
2023-10-02T14:34:16.389Z,100021.59
2023-10-02T14:36:18.374Z,100014.25
2023-10-02T14:38:20.431Z,100017.56
2023-10-02T14:40:30.649Z,100018.19
2023-10-02T14:42:32.610Z,100007.88
2023-10-02T14:44:36.633Z,100001.31
2023-10-02T14:46:41.067Z,100005.63
2023-10-02T14:48:47.516Z,100003.66
2023-10-02T14:50:49.882Z,99998.19
2023-10-02T14:52:54.192Z,99996.19
2023-10-02T14:54:55.721Z,99997.06
2023-10-02T14:56:57.165Z,99996.00
2023-10-02T14:58:58.634Z,99990.09
2023-10-02T15:01:00.289Z,99987.47
2023-10-02T15:03:03.030Z,99986.47
2023-10-02T15:05:04.927Z,99989.34
2023-10-02T15:07:06.522Z,99981.41
2023-10-02T15:09:10.877Z,99981.28
2023-10-02T15:11:15.065Z,99976.53
2023-10-02T15:13:18.949Z,99976.72
2023-10-02T15:15:23.376Z,99972.53
2023-10-02T15:17:27.221Z,99976.19
2023-10-02T15:19:28.788Z,99975.22
2023-10-02T15:21:30.231Z,99975.41
2023-10-02T15:23:33.602Z,99973.16
2023-10-02T15:25:35.652Z,99967.53
2023-10-02T15:27:37.506Z,99974.44
2023-10-02T15:29:38.994Z,99973.63
2023-10-02T15:31:40.438Z,99968.94
2023-10-02T15:33:42.490Z,99966.84
2023-10-02T15:35:44.528Z,99963.81
2023-10-02T15:37:55.352Z,99964.44
2023-10-02T15:39:56.800Z,99962.63
2023-10-02T15:41:58.213Z,99961.72
2023-10-02T15:43:59.816Z,99961.06
2023-10-02T15:46:04.778Z,99954.31
2023-10-02T15:48:06.598Z,99947.31
2023-10-02T15:50:09.334Z,99946.91
2023-10-02T15:52:11.110Z,99947.50
2023-10-02T15:54:16.276Z,99949.22
2023-10-02T15:56:20.771Z,99950.06
2023-10-02T15:58:25.547Z,99952.13
2023-10-02T16:00:30.237Z,99944.56
2023-10-02T16:02:41.231Z,99942.94
2023-10-02T16:04:47.882Z,99942.97
2023-10-02T16:07:03.416Z,99938.44
2023-10-02T16:09:09.171Z,99935.84
2023-10-02T16:11:12.489Z,99933.16
2023-10-02T16:13:15.564Z,99930.22
2023-10-02T16:15:27.069Z,99935.63
2023-10-02T16:17:33.407Z,99931.38
2023-10-02T16:19:39.140Z,99924.25
2023-10-02T16:21:42.461Z,99925.97
2023-10-02T16:23:49.522Z,99922.59
2023-10-02T16:25:53.401Z,99923.69
2023-10-02T16:27:56.959Z,99918.69
2023-10-02T16:30:03.152Z,99913.13
2023-10-02T16:32:07.909Z,99903.91
2023-10-02T16:34:14.313Z,99908.28
2023-10-02T16:36:29.252Z,99911.59
2023-10-02T16:38:33.300Z,99907.16
2023-10-02T16:40:39.709Z,99904.53
2023-10-02T16:42:47.594Z,99909.81
2023-10-02T16:44:52.839Z,99901.97
2023-10-02T16:46:56.564Z,99899.19
2023-10-02T16:49:00.647Z,99893.66
2023-10-02T16:51:05.114Z,99898.41
2023-10-02T16:53:12.954Z,99895.28
2023-10-02T16:55:25.492Z,99892.81
2023-10-02T16:57:35.227Z,99890.75
2023-10-02T16:59:42.053Z,99888.22
2023-10-02T17:01:48.838Z,99888.16
2023-10-02T17:03:53.801Z,99887.72
2023-10-02T17:05:58.241Z,99878.50
2023-10-02T17:08:01.614Z,99879.94
2023-10-02T17:10:06.344Z,99885.13
2023-10-02T17:12:09.137Z,99869.94
2023-10-02T17:14:15.413Z,99882.69
2023-10-02T17:16:18.545Z,99877.34
2023-10-02T17:18:24.703Z,99877.94
2023-10-02T17:20:27.438Z,99870.22
2023-10-02T17:22:32.096Z,99872.91
2023-10-02T17:24:34.406Z,99873.78
2023-10-02T17:26:37.486Z,99873.88
2023-10-02T17:28:39.775Z,99867.69
2023-10-02T17:30:41.951Z,99866.91
2023-10-02T17:32:43.989Z,99861.97
2023-10-02T17:34:45.792Z,99864.94
2023-10-02T17:36:47.516Z,99866.88
2023-10-02T17:38:49.965Z,99865.06
2023-10-02T17:40:53.149Z,99859.69
2023-10-02T17:42:57.641Z,99866.78
2023-10-02T17:44:59.916Z,99864.66
2023-10-02T17:47:01.727Z,99857.44
2023-10-02T17:49:03.661Z,99851.59
2023-10-02T17:51:07.629Z,99854.34
2023-10-02T17:53:11.268Z,99850.63
2023-10-02T17:55:13.097Z,99847.38
2023-10-02T17:57:18.684Z,99849.03
2023-10-02T17:59:21.909Z,99835.66
2023-10-02T18:01:23.786Z,99843.50
2023-10-02T18:03:25.550Z,99835.72
2023-10-02T18:05:29.659Z,99825.84
2023-10-02T18:07:31.538Z,99830.44
2023-10-02T18:09:36.803Z,99824.88
2023-10-02T18:11:38.605Z,99821.09
2023-10-02T18:13:40.514Z,99815.53
2023-10-02T18:15:43.974Z,99820.66
2023-10-02T18:17:46.991Z,99813.41
2023-10-02T18:19:48.802Z,99813.44
2023-10-02T18:21:50.491Z,99813.41
2023-10-02T18:23:52.230Z,99813.75
2023-10-02T18:25:54.549Z,99811.03
2023-10-02T18:27:58.110Z,99803.84
2023-10-02T18:29:59.908Z,99815.41
2023-10-02T18:32:02.590Z,99807.94
2023-10-02T18:34:05.132Z,99810.38
2023-10-02T18:36:07.037Z,99815.75
2023-10-02T18:38:09.414Z,99808.56
2023-10-02T18:40:14.938Z,99808.00
2023-10-02T18:42:20.621Z,99810.72
2023-10-02T18:44:25.904Z,99810.19
2023-10-02T18:46:27.730Z,99797.09
2023-10-02T18:48:29.860Z,99801.13
2023-10-02T18:50:32.191Z,99789.06
2023-10-02T18:52:35.953Z,99793.91
2023-10-02T18:54:37.774Z,99795.00
2023-10-02T18:56:39.746Z,99801.19
2023-10-02T18:58:41.478Z,99801.94
2023-10-02T19:00:43.294Z,99800.88
2023-10-02T19:02:46.328Z,99795.53
2023-10-02T19:04:49.669Z,99793.41
2023-10-02T19:06:51.339Z,99794.22
2023-10-02T19:08:54.597Z,99799.88
2023-10-02T19:10:56.667Z,99793.97
2023-10-02T19:12:59.193Z,99790.75
2023-10-02T19:15:01.089Z,99790.47
2023-10-02T19:17:02.773Z,99781.63
2023-10-02T19:19:04.739Z,99796.69
2023-10-02T19:21:06.917Z,99788.63
2023-10-02T19:23:08.636Z,99784.34
2023-10-02T19:25:10.763Z,99792.38
2023-10-02T19:27:12.865Z,99786.22
2023-10-02T19:29:14.589Z,99797.50
2023-10-02T19:31:17.385Z,99790.53
2023-10-02T19:33:19.541Z,99788.38
2023-10-02T19:35:21.502Z,99790.28
2023-10-02T19:37:23.430Z,99797.50
2023-10-02T19:39:25.148Z,99789.47
2023-10-02T19:41:27.289Z,99781.19
2023-10-02T19:43:30.169Z,99781.75
2023-10-02T19:45:32.031Z,99781.47
2023-10-02T19:47:34.356Z,99779.88
2023-10-02T19:49:36.344Z,99777.72
2023-10-02T19:51:38.375Z,99780.16
2023-10-02T19:53:40.507Z,99775.56
2023-10-02T19:55:42.843Z,99772.63
2023-10-02T19:57:44.547Z,99774.25
2023-10-02T19:59:48.331Z,99778.00
2023-10-02T20:01:50.249Z,99779.88
2023-10-02T20:03:55.880Z,99774.81
2023-10-02T20:06:00.827Z,99770.25
2023-10-02T20:08:02.675Z,99766.50
2023-10-02T20:10:07.234Z,99765.44
2023-10-02T20:12:08.916Z,99773.19
2023-10-02T20:14:10.398Z,99768.38
2023-10-02T20:16:11.959Z,99764.13
2023-10-02T20:18:16.742Z,99764.13
2023-10-02T20:20:18.495Z,99763.31
2023-10-02T20:22:20.168Z,99754.75
2023-10-02T20:24:22.052Z,99751.28
2023-10-02T20:26:23.675Z,99750.47
2023-10-02T20:28:25.643Z,99753.41
2023-10-02T20:30:27.123Z,99741.38
2023-10-02T20:32:28.763Z,99742.19
2023-10-02T20:34:37.042Z,99740.06
2023-10-02T20:36:39.296Z,99732.56
2023-10-02T20:38:41.400Z,99728.28
2023-10-02T20:40:43.551Z,99726.38
2023-10-02T20:42:45.316Z,99729.59
2023-10-02T20:44:46.817Z,99726.91
2023-10-02T20:46:56.181Z,99721.28
2023-10-02T20:49:05.635Z,99718.63
2023-10-02T20:51:07.064Z,99716.47
2023-10-02T20:53:08.524Z,99713.00
2023-10-02T20:55:10.943Z,99705.53
2023-10-02T20:57:12.404Z,99713.00
2023-10-02T21:01:20.940Z,99703.38
2023-10-02T21:03:22.505Z,99708.19
2023-10-02T21:05:24.261Z,99705.78
2023-10-02T21:07:25.858Z,99699.91
2023-10-02T21:09:27.424Z,99710.06
2023-10-02T21:11:29.755Z,99703.09
2023-10-02T21:13:31.234Z,99695.59
2023-10-02T21:15:32.693Z,99696.16
2023-10-02T21:17:34.234Z,99693.75
2023-10-02T21:19:35.844Z,99699.66
2023-10-02T21:21:37.629Z,99687.63
2023-10-02T21:23:39.086Z,99683.09
2023-10-02T21:25:40.582Z,99689.75
2023-10-02T21:27:42.545Z,99680.94
2023-10-02T21:29:44.068Z,99683.59
2023-10-02T21:31:45.579Z,99671.59
2023-10-02T21:33:47.038Z,99670.25
2023-10-02T21:35:49.696Z,99668.09
2023-10-02T21:37:51.185Z,99666.78
2023-10-02T21:39:52.691Z,99669.97
2023-10-02T21:41:54.305Z,99661.94
2023-10-02T21:43:55.770Z,99652.59
2023-10-02T21:45:57.203Z,99659.56
2023-10-02T21:47:59.863Z,99663.31
2023-10-02T21:50:01.760Z,99666.50
2023-10-02T21:52:03.564Z,99664.09
2023-10-02T21:54:05.348Z,99662.50
2023-10-02T21:56:09.600Z,99659.84
2023-10-02T21:58:11.144Z,99660.63
2023-10-02T22:00:32.473Z,99657.94
2023-10-02T22:02:34.200Z,99652.06
2023-10-02T22:04:35.660Z,99656.31
2023-10-02T22:06:37.163Z,99647.25
2023-10-02T22:08:40.309Z,99651.25
2023-10-02T22:10:45.208Z,99648.88
2023-10-02T22:12:46.684Z,99646.97
2023-10-02T22:14:49.221Z,99645.91
2023-10-02T22:16:50.681Z,99642.44
2023-10-02T22:18:52.546Z,99646.72
2023-10-02T22:21:11.191Z,99646.44
2023-10-02T22:23:15.780Z,99635.47
2023-10-02T22:25:19.063Z,99632.81
2023-10-02T22:27:20.500Z,99635.72
2023-10-02T22:29:21.994Z,99625.84
2023-10-02T22:31:24.468Z,99620.75
2023-10-02T22:33:26.029Z,99619.19
2023-10-02T22:35:27.638Z,99622.91
2023-10-02T22:37:33.632Z,99622.13
2023-10-02T22:39:35.210Z,99613.00
2023-10-02T22:41:36.802Z,99610.63
2023-10-02T22:43:38.312Z,99606.34
2023-10-02T22:45:40.309Z,99595.94
2023-10-02T22:47:43.318Z,99593.50
2023-10-02T22:49:44.786Z,99595.94
2023-10-02T22:51:46.220Z,99598.84
2023-10-02T22:53:49.362Z,99584.69
2023-10-02T22:55:51.678Z,99586.00
2023-10-02T22:57:56.762Z,99580.09
2023-10-02T22:59:58.378Z,99573.97
2023-10-02T23:02:00.934Z,99577.47
2023-10-02T23:04:07.458Z,99575.06
2023-10-02T23:06:09.772Z,99575.31
2023-10-02T23:08:13.777Z,99566.72
2023-10-02T23:10:19.510Z,99561.16
2023-10-02T23:12:20.941Z,99554.22
2023-10-02T23:14:24.058Z,99554.72
2023-10-02T23:16:26.486Z,99546.97
2023-10-02T23:18:29.194Z,99549.91
2023-10-02T23:20:32.715Z,99540.84
2023-10-02T23:22:37.324Z,99537.63
2023-10-02T23:24:38.869Z,99541.66
2023-10-02T23:26:40.364Z,99533.63
2023-10-02T23:28:42.018Z,99533.09
2023-10-02T23:30:43.630Z,99519.97
2023-10-02T23:32:45.202Z,99517.28
2023-10-02T23:34:46.751Z,99518.13
2023-10-02T23:36:48.773Z,99509.88
2023-10-02T23:38:50.385Z,99505.31
2023-10-02T23:40:51.852Z,99507.69
2023-10-02T23:43:01.267Z,99500.50
2023-10-02T23:45:07.516Z,99488.22
2023-10-02T23:47:10.892Z,99490.34
2023-10-02T23:49:13.815Z,99494.88
2023-10-02T23:51:15.355Z,99485.81
2023-10-02T23:53:16.948Z,99482.63
2023-10-02T23:55:24.838Z,99480.75
2023-10-02T23:57:28.740Z,99480.75
2023-10-02T23:59:30.293Z,99477.53
